sensor_id;sensor_type;location;lat;lon;timestamp;pressure;altitude;pressure_sealevel;temperature;humidity
17254;BME280;32542;52.832;13.816;2023-04-08T00:02:23;102044.41;;;20.46;46.88
17254;BME280;32542;52.832;13.816;2023-04-08T00:05:26;102045.28;;;20.46;46.81
17254;BME280;32542;52.832;13.816;2023-04-08T00:08:29;102047.94;;;20.46;46.92
17254;BME280;32542;52.832;13.816;2023-04-08T00:11:33;102046.19;;;20.45;46.81
17254;BME280;32542;52.832;13.816;2023-04-08T00:14:36;102041.75;;;20.46;46.72
17254;BME280;32542;52.832;13.816;2023-04-08T00:17:40;102036.47;;;20.44;46.94
17254;BME280;32542;52.832;13.816;2023-04-08T00:20:43;102040.88;;;20.45;46.70
17254;BME280;32542;52.832;13.816;2023-04-08T00:23:46;102052.34;;;20.47;46.80
17254;BME280;32542;52.832;13.816;2023-04-08T00:26:51;102055.88;;;20.48;46.72
17254;BME280;32542;52.832;13.816;2023-04-08T00:29:54;102049.63;;;20.49;46.61
17254;BME280;32542;52.832;13.816;2023-04-08T00:32:56;102048.72;;;20.50;46.52
17254;BME280;32542;52.832;13.816;2023-04-08T00:36:00;102050.50;;;20.49;46.65
17254;BME280;32542;52.832;13.816;2023-04-08T00:39:04;102059.44;;;20.48;46.73
17254;BME280;32542;52.832;13.816;2023-04-08T00:42:09;102053.22;;;20.48;46.65
17254;BME280;32542;52.832;13.816;2023-04-08T00:45:12;102057.66;;;20.47;46.60
17254;BME280;32542;52.832;13.816;2023-04-08T00:48:15;102057.72;;;20.46;46.71
17254;BME280;32542;52.832;13.816;2023-04-08T00:51:18;102062.16;;;20.45;46.73
17254;BME280;32542;52.832;13.816;2023-04-08T00:54:20;102065.75;;;20.44;46.66
17254;BME280;32542;52.832;13.816;2023-04-08T00:57:25;102068.41;;;20.44;46.68
17254;BME280;32542;52.832;13.816;2023-04-08T01:00:28;102074.63;;;20.43;46.83
17254;BME280;32542;52.832;13.816;2023-04-08T01:03:37;102068.41;;;20.44;46.62
17254;BME280;32542;52.832;13.816;2023-04-08T01:06:46;102073.69;;;20.46;46.65
17254;BME280;32542;52.832;13.816;2023-04-08T01:09:53;102071.03;;;20.46;46.60
17254;BME280;32542;52.832;13.816;2023-04-08T01:13:03;102073.63;;;20.47;46.62
17254;BME280;32542;52.832;13.816;2023-04-08T01:16:08;102068.31;;;20.47;46.47
17254;BME280;32542;52.832;13.816;2023-04-08T01:19:26;102064.75;;;20.47;46.55
17254;BME280;32542;52.832;13.816;2023-04-08T01:22:36;102071.91;;;20.46;46.51
17254;BME280;32542;52.832;13.816;2023-04-08T01:25:45;102065.69;;;20.46;46.65
17254;BME280;32542;52.832;13.816;2023-04-08T01:28:48;102063.94;;;20.45;46.53
17254;BME280;32542;52.832;13.816;2023-04-08T01:31:53;102076.38;;;20.44;46.60
17254;BME280;32542;52.832;13.816;2023-04-08T01:34:57;102068.41;;;20.44;46.55
17254;BME280;32542;52.832;13.816;2023-04-08T01:38:04;102068.41;;;20.44;46.49
17254;BME280;32542;52.832;13.816;2023-04-08T01:41:10;102061.31;;;20.43;46.58
17254;BME280;32542;52.832;13.816;2023-04-08T01:44:14;102063.09;;;20.43;46.68
17254;BME280;32542;52.832;13.816;2023-04-08T01:47:18;102066.63;;;20.43;46.51
17254;BME280;32542;52.832;13.816;2023-04-08T01:50:21;102076.38;;;20.44;46.59
17254;BME280;32542;52.832;13.816;2023-04-08T01:53:25;102076.38;;;20.44;46.57
17254;BME280;32542;52.832;13.816;2023-04-08T01:56:32;102086.09;;;20.45;46.59
17254;BME280;32542;52.832;13.816;2023-04-08T01:59:39;102080.72;;;20.47;46.35
17254;BME280;32542;52.832;13.816;2023-04-08T02:02:43;102080.78;;;20.45;46.39
17254;BME280;32542;52.832;13.816;2023-04-08T02:05:48;102091.41;;;20.45;46.55
17254;BME280;32542;52.832;13.816;2023-04-08T02:08:51;102089.66;;;20.46;46.56
17254;BME280;32542;52.832;13.816;2023-04-08T02:11:56;102096.75;;;20.45;46.42
17254;BME280;32542;52.832;13.816;2023-04-08T02:14:59;102095.84;;;20.45;46.36
17254;BME280;32542;52.832;13.816;2023-04-08T02:18:09;102100.34;;;20.44;46.37
17254;BME280;32542;52.832;13.816;2023-04-08T02:21:14;102100.34;;;20.44;46.35
17254;BME280;32542;52.832;13.816;2023-04-08T02:24:17;102092.34;;;20.44;46.35
17254;BME280;32542;52.832;13.816;2023-04-08T02:27:24;102095.00;;;20.44;46.39
17254;BME280;32542;52.832;13.816;2023-04-08T02:30:29;102100.34;;;20.44;46.49
17254;BME280;32542;52.832;13.816;2023-04-08T02:33:33;102097.69;;;20.44;46.39
17254;BME280;32542;52.832;13.816;2023-04-08T02:36:37;102100.34;;;20.44;46.31
17254;BME280;32542;52.832;13.816;2023-04-08T02:39:41;102102.06;;;20.45;46.36
17254;BME280;32542;52.832;13.816;2023-04-08T02:42:46;102110.00;;;20.47;46.28
17254;BME280;32542;52.832;13.816;2023-04-08T02:45:49;102117.97;;;20.47;46.32
17254;BME280;32542;52.832;13.816;2023-04-08T02:48:52;102121.53;;;20.47;46.28
17254;BME280;32542;52.832;13.816;2023-04-08T02:51:55;102118.81;;;20.49;46.39
17254;BME280;32542;52.832;13.816;2023-04-08T02:54:58;102122.41;;;20.48;46.15
17254;BME280;32542;52.832;13.816;2023-04-08T02:58:02;102125.94;;;20.48;46.22
17254;BME280;32542;52.832;13.816;2023-04-08T03:01:07;102117.97;;;20.48;46.11
17254;BME280;32542;52.832;13.816;2023-04-08T03:04:10;102127.69;;;20.49;46.35
17254;BME280;32542;52.832;13.816;2023-04-08T03:07:13;102128.56;;;20.50;46.18
17254;BME280;32542;52.832;13.816;2023-04-08T03:10:16;102120.63;;;20.48;46.28
17254;BME280;32542;52.832;13.816;2023-04-08T03:13:20;102138.31;;;20.49;46.18
17254;BME280;32542;52.832;13.816;2023-04-08T03:16:23;102135.66;;;20.49;46.24
17254;BME280;32542;52.832;13.816;2023-04-08T03:19:26;102134.78;;;20.49;46.19
17254;BME280;32542;52.832;13.816;2023-04-08T03:22:29;102131.28;;;20.48;46.20
17254;BME280;32542;52.832;13.816;2023-04-08T03:25:31;102134.78;;;20.49;46.26
17254;BME280;32542;52.832;13.816;2023-04-08T03:28:36;102134.78;;;20.49;46.13
17254;BME280;32542;52.832;13.816;2023-04-08T03:31:39;102136.59;;;20.48;46.16
17254;BME280;32542;52.832;13.816;2023-04-08T03:34:42;102128.63;;;20.48;46.27
17254;BME280;32542;52.832;13.816;2023-04-08T03:37:44;102136.59;;;20.48;46.12
17254;BME280;32542;52.832;13.816;2023-04-08T03:40:47;102137.50;;;20.47;46.06
17254;BME280;32542;52.832;13.816;2023-04-08T03:43:51;102153.47;;;20.47;46.25
17254;BME280;32542;52.832;13.816;2023-04-08T03:46:54;102151.75;;;20.45;46.08
17254;BME280;32542;52.832;13.816;2023-04-08T03:49:57;102159.72;;;20.46;46.27
17254;BME280;32542;52.832;13.816;2023-04-08T03:53:00;102156.22;;;20.44;46.19
17254;BME280;32542;52.832;13.816;2023-04-08T03:56:03;102152.66;;;20.44;46.17
17254;BME280;32542;52.832;13.816;2023-04-08T03:59:07;102153.56;;;20.43;46.21
17254;BME280;32542;52.832;13.816;2023-04-08T04:02:10;102166.03;;;20.42;46.25
17254;BME280;32542;52.832;13.816;2023-04-08T04:05:13;102152.72;;;20.42;46.19
17254;BME280;32542;52.832;13.816;2023-04-08T04:08:16;102168.69;;;20.42;46.17
17254;BME280;32542;52.832;13.816;2023-04-08T04:11:18;102165.13;;;20.42;46.25
17254;BME280;32542;52.832;13.816;2023-04-08T04:14:23;102173.13;;;20.42;46.33
17254;BME280;32542;52.832;13.816;2023-04-08T04:17:26;102174.91;;;20.41;46.27
17254;BME280;32542;52.832;13.816;2023-04-08T04:20:29;102177.56;;;20.41;46.34
17254;BME280;32542;52.832;13.816;2023-04-08T04:23:32;102174.00;;;20.41;46.46
17254;BME280;32542;52.832;13.816;2023-04-08T04:26:34;102175.78;;;20.40;46.17
17254;BME280;32542;52.832;13.816;2023-04-08T04:29:39;102183.78;;;20.40;46.06
17254;BME280;32542;52.832;13.816;2023-04-08T04:32:41;102183.78;;;20.40;46.10
17254;BME280;32542;52.832;13.816;2023-04-08T04:35:44;102190.88;;;20.41;46.02
17254;BME280;32542;52.832;13.816;2023-04-08T04:38:48;102189.09;;;20.40;46.20
17254;BME280;32542;52.832;13.816;2023-04-08T04:41:51;102199.75;;;20.40;46.19
17254;BME280;32542;52.832;13.816;2023-04-08T04:44:55;102202.38;;;20.42;45.98
17254;BME280;32542;52.832;13.816;2023-04-08T04:47:59;102197.94;;;20.42;45.98
17254;BME280;32542;52.832;13.816;2023-04-08T04:51:02;102189.97;;;20.42;46.01
17254;BME280;32542;52.832;13.816;2023-04-08T04:54:05;102195.28;;;20.42;45.87
17254;BME280;32542;52.832;13.816;2023-04-08T04:57:07;102198.81;;;20.43;46.05
17254;BME280;32542;52.832;13.816;2023-04-08T05:00:13;102197.91;;;20.44;46.09
17254;BME280;32542;52.832;13.816;2023-04-08T05:03:16;102210.31;;;20.43;45.95
17254;BME280;32542;52.832;13.816;2023-04-08T05:06:19;102218.31;;;20.43;45.92
17254;BME280;32542;52.832;13.816;2023-04-08T05:09:22;102210.31;;;20.43;45.96
17254;BME280;32542;52.832;13.816;2023-04-08T05:12:25;102225.41;;;20.43;45.99
17254;BME280;32542;52.832;13.816;2023-04-08T05:15:31;102225.41;;;20.43;46.11
17254;BME280;32542;52.832;13.816;2023-04-08T05:18:34;102229.84;;;20.44;46.07
17254;BME280;32542;52.832;13.816;2023-04-08T05:21:37;102229.88;;;20.42;45.88
17254;BME280;32542;52.832;13.816;2023-04-08T05:24:39;102228.06;;;20.43;46.03
17254;BME280;32542;52.832;13.816;2023-04-08T05:27:42;102237.81;;;20.44;45.98
17254;BME280;32542;52.832;13.816;2023-04-08T05:30:48;102238.69;;;20.44;45.86
17254;BME280;32542;52.832;13.816;2023-04-08T05:33:52;102244.03;;;20.44;45.91
17254;BME280;32542;52.832;13.816;2023-04-08T05:36:55;102240.47;;;20.44;45.93
17254;BME280;32542;52.832;13.816;2023-04-08T05:39:58;102246.69;;;20.44;45.83
17254;BME280;32542;52.832;13.816;2023-04-08T05:43:01;102238.69;;;20.44;45.88
17254;BME280;32542;52.832;13.816;2023-04-08T05:46:08;102247.56;;;20.43;45.93
17254;BME280;32542;52.832;13.816;2023-04-08T05:49:12;102250.25;;;20.43;45.95
17254;BME280;32542;52.832;13.816;2023-04-08T05:52:14;102263.53;;;20.43;46.05
17254;BME280;32542;52.832;13.816;2023-04-08T05:55:18;102263.53;;;20.43;46.00
17254;BME280;32542;52.832;13.816;2023-04-08T05:58:21;102265.31;;;20.43;46.04
17254;BME280;32542;52.832;13.816;2023-04-08T06:01:25;102271.56;;;20.42;46.02
17254;BME280;32542;52.832;13.816;2023-04-08T06:04:28;102270.66;;;20.43;46.04
17254;BME280;32542;52.832;13.816;2023-04-08T06:07:31;102281.28;;;20.43;46.05
17254;BME280;32542;52.832;13.816;2023-04-08T06:10:34;102275.97;;;20.43;46.03
17254;BME280;32542;52.832;13.816;2023-04-08T06:13:36;102272.47;;;20.42;45.90
17254;BME280;32542;52.832;13.816;2023-04-08T06:16:41;102275.97;;;20.43;45.96
17254;BME280;32542;52.832;13.816;2023-04-08T06:19:44;102276.00;;;20.41;45.90
17254;BME280;32542;52.832;13.816;2023-04-08T06:22:46;102277.78;;;20.42;45.92
17254;BME280;32542;52.832;13.816;2023-04-08T06:25:49;102284.00;;;20.41;45.95
17254;BME280;32542;52.832;13.816;2023-04-08T06:28:52;102276.00;;;20.41;45.94
17254;BME280;32542;52.832;13.816;2023-04-08T06:31:56;102285.78;;;20.41;46.07
17254;BME280;32542;52.832;13.816;2023-04-08T06:34:59;102286.66;;;20.41;46.07
17254;BME280;32542;52.832;13.816;2023-04-08T06:38:02;102284.88;;;20.40;46.05
17254;BME280;32542;52.832;13.816;2023-04-08T06:41:05;102300.84;;;20.40;45.92
17254;BME280;32542;52.832;13.816;2023-04-08T06:44:08;102296.41;;;20.41;45.94
17254;BME280;32542;52.832;13.816;2023-04-08T06:47:12;102313.25;;;20.41;45.83
17254;BME280;32542;52.832;13.816;2023-04-08T06:50:17;102309.72;;;20.41;45.82
17254;BME280;32542;52.832;13.816;2023-04-08T06:53:21;102318.59;;;20.41;45.92
17254;BME280;32542;52.832;13.816;2023-04-08T06:56:24;102321.25;;;20.41;45.83
17254;BME280;32542;52.832;13.816;2023-04-08T06:59:27;102331.00;;;20.42;45.75
17254;BME280;32542;52.832;13.816;2023-04-08T07:02:32;102325.66;;;20.42;45.74
17254;BME280;32542;52.832;13.816;2023-04-08T07:05:35;102328.34;;;20.42;45.90
17254;BME280;32542;52.832;13.816;2023-04-08T07:08:39;102336.31;;;20.42;45.84
17254;BME280;32542;52.832;13.816;2023-04-08T07:11:42;102335.44;;;20.42;45.71
17254;BME280;32542;52.832;13.816;2023-04-08T07:14:44;102336.31;;;20.42;45.73
17254;BME280;32542;52.832;13.816;2023-04-08T07:17:48;102338.97;;;20.42;45.66
17254;BME280;32542;52.832;13.816;2023-04-08T07:20:52;102341.63;;;20.42;45.85
17254;BME280;32542;52.832;13.816;2023-04-08T07:23:55;102346.97;;;20.42;45.67
17254;BME280;32542;52.832;13.816;2023-04-08T07:26:58;102351.41;;;20.42;45.67
17254;BME280;32542;52.832;13.816;2023-04-08T07:30:01;102359.38;;;20.42;45.65
17254;BME280;32542;52.832;13.816;2023-04-08T07:33:05;102359.34;;;20.43;45.67
17254;BME280;32542;52.832;13.816;2023-04-08T07:36:08;102356.69;;;20.43;45.67
17254;BME280;32542;52.832;13.816;2023-04-08T07:39:11;102355.78;;;20.44;45.69
17254;BME280;32542;52.832;13.816;2023-04-08T07:42:14;102348.69;;;20.43;45.67
17254;BME280;32542;52.832;13.816;2023-04-08T07:45:17;102359.34;;;20.43;45.59
17254;BME280;32542;52.832;13.816;2023-04-08T07:48:21;102360.22;;;20.44;45.71
17254;BME280;32542;52.832;13.816;2023-04-08T07:51:24;102363.78;;;20.43;45.73
17254;BME280;32542;52.832;13.816;2023-04-08T07:54:30;102373.56;;;20.42;45.59
17254;BME280;32542;52.832;13.816;2023-04-08T07:57:34;102374.41;;;20.43;45.67
17254;BME280;32542;52.832;13.816;2023-04-08T08:00:37;102381.56;;;20.42;45.63
17254;BME280;32542;52.832;13.816;2023-04-08T08:03:42;102376.22;;;20.42;45.64
17254;BME280;32542;52.832;13.816;2023-04-08T08:06:46;102380.66;;;20.42;45.63
17254;BME280;32542;52.832;13.816;2023-04-08T08:09:49;102387.75;;;20.41;45.59
17254;BME280;32542;52.832;13.816;2023-04-08T08:12:52;102381.56;;;20.42;45.60
17254;BME280;32542;52.832;13.816;2023-04-08T08:15:54;102386.88;;;20.42;45.61
17254;BME280;32542;52.832;13.816;2023-04-08T08:18:59;102384.22;;;20.42;45.60
17254;BME280;32542;52.832;13.816;2023-04-08T08:22:02;102383.28;;;20.43;45.58
17254;BME280;32542;52.832;13.816;2023-04-08T08:25:05;102385.06;;;20.43;45.56
17254;BME280;32542;52.832;13.816;2023-04-08T08:28:10;102391.28;;;20.43;45.81
17254;BME280;32542;52.832;13.816;2023-04-08T08:31:13;102393.03;;;20.43;45.76
17254;BME280;32542;52.832;13.816;2023-04-08T08:34:17;102395.72;;;20.43;45.89
17254;BME280;32542;52.832;13.816;2023-04-08T08:37:20;102394.81;;;20.44;45.55
17254;BME280;32542;52.832;13.816;2023-04-08T08:40:23;102402.84;;;20.42;45.58
17254;BME280;32542;52.832;13.816;2023-04-08T08:43:27;102405.50;;;20.42;45.39
17254;BME280;32542;52.832;13.816;2023-04-08T08:46:30;102408.16;;;20.42;45.35
17254;BME280;32542;52.832;13.816;2023-04-08T08:49:35;102407.28;;;20.42;45.36
17254;BME280;32542;52.832;13.816;2023-04-08T08:52:37;102408.16;;;20.42;45.53
17254;BME280;32542;52.832;13.816;2023-04-08T08:55:40;102419.69;;;20.41;45.31
17254;BME280;32542;52.832;13.816;2023-04-08T08:58:46;102423.25;;;20.42;45.40
17254;BME280;32542;52.832;13.816;2023-04-08T09:01:49;102418.81;;;20.41;45.32
17254;BME280;32542;52.832;13.816;2023-04-08T09:04:58;102421.47;;;20.42;45.24
17254;BME280;32542;52.832;13.816;2023-04-08T09:08:01;102421.47;;;20.42;45.30
17254;BME280;32542;52.832;13.816;2023-04-08T09:11:12;102425.91;;;20.42;45.48
17254;BME280;32542;52.832;13.816;2023-04-08T09:14:19;102432.09;;;20.42;45.79
17254;BME280;32542;52.832;13.816;2023-04-08T09:17:33;102424.13;;;20.42;46.18
17254;BME280;32542;52.832;13.816;2023-04-08T09:20:51;102427.69;;;20.41;45.90
17254;BME280;32542;52.832;13.816;2023-04-08T09:24:02;102442.75;;;20.42;46.18
17254;BME280;32542;52.832;13.816;2023-04-08T09:27:10;102443.59;;;20.43;46.12
17254;BME280;32542;52.832;13.816;2023-04-08T09:30:13;102441.81;;;20.43;46.01
17254;BME280;32542;52.832;13.816;2023-04-08T09:33:16;102445.38;;;20.44;46.20
17254;BME280;32542;52.832;13.816;2023-04-08T09:36:20;102448.88;;;20.46;47.05
17254;BME280;32542;52.832;13.816;2023-04-08T09:39:23;102444.38;;;20.49;48.18
17254;BME280;32542;52.832;13.816;2023-04-08T09:42:26;102451.47;;;20.50;48.75
17254;BME280;32542;52.832;13.816;2023-04-08T09:45:29;102449.63;;;20.52;49.27
17254;BME280;32542;52.832;13.816;2023-04-08T09:48:39;102449.56;;;20.55;49.62
17254;BME280;32542;52.832;13.816;2023-04-08T09:51:52;102451.34;;;20.56;49.72
17254;BME280;32542;52.832;13.816;2023-04-08T09:55:00;102452.16;;;20.58;49.97
17254;BME280;32542;52.832;13.816;2023-04-08T09:58:09;102448.59;;;20.59;49.50
17254;BME280;32542;52.832;13.816;2023-04-08T10:01:13;102454.78;;;20.60;49.60
17254;BME280;32542;52.832;13.816;2023-04-08T10:04:19;102456.53;;;20.62;50.02
17254;BME280;32542;52.832;13.816;2023-04-08T10:07:24;102458.28;;;20.63;50.84
17254;BME280;32542;52.832;13.816;2023-04-08T10:10:27;102457.31;;;20.66;51.42
17254;BME280;32542;52.832;13.816;2023-04-08T10:13:32;102460.84;;;20.68;52.04
17254;BME280;32542;52.832;13.816;2023-04-08T10:16:35;102454.56;;;20.70;52.70
17254;BME280;32542;52.832;13.816;2023-04-08T10:19:39;102448.34;;;20.71;53.44
17254;BME280;32542;52.832;13.816;2023-04-08T10:22:47;102451.88;;;20.73;53.51
17254;BME280;32542;52.832;13.816;2023-04-08T10:25:50;102452.75;;;20.74;53.30
17254;BME280;32542;52.832;13.816;2023-04-08T10:28:53;102450.94;;;20.74;52.61
17254;BME280;32542;52.832;13.816;2023-04-08T10:31:55;102447.44;;;20.74;52.21
17254;BME280;32542;52.832;13.816;2023-04-08T10:34:59;102448.28;;;20.74;51.77
17254;BME280;32542;52.832;13.816;2023-04-08T10:38:03;102444.75;;;20.74;51.58
17254;BME280;32542;52.832;13.816;2023-04-08T10:41:06;102446.53;;;20.73;51.18
17254;BME280;32542;52.832;13.816;2023-04-08T10:44:15;102445.63;;;20.74;51.14
17254;BME280;32542;52.832;13.816;2023-04-08T10:47:24;102444.75;;;20.74;50.84
17254;BME280;32542;52.832;13.816;2023-04-08T10:50:29;102440.38;;;20.71;50.77
17254;BME280;32542;52.832;13.816;2023-04-08T10:53:35;102443.00;;;20.73;50.50
17254;BME280;32542;52.832;13.816;2023-04-08T10:56:43;102434.13;;;20.72;50.46
17254;BME280;32542;52.832;13.816;2023-04-08T10:59:47;102437.72;;;20.71;50.34
17254;BME280;32542;52.832;13.816;2023-04-08T11:02:49;102440.38;;;20.71;50.38
17254;BME280;32542;52.832;13.816;2023-04-08T11:05:56;102440.38;;;20.71;50.08
17254;BME280;32542;52.832;13.816;2023-04-08T11:09:01;102437.72;;;20.71;50.17
17254;BME280;32542;52.832;13.816;2023-04-08T11:12:04;102435.94;;;20.70;49.96
17254;BME280;32542;52.832;13.816;2023-04-08T11:15:08;102445.72;;;20.70;50.00
17254;BME280;32542;52.832;13.816;2023-04-08T11:18:11;102440.38;;;20.71;49.70
17254;BME280;32542;52.832;13.816;2023-04-08T11:21:15;102443.94;;;20.70;49.61
17254;BME280;32542;52.832;13.816;2023-04-08T11:24:20;102433.28;;;20.70;49.50
17254;BME280;32542;52.832;13.816;2023-04-08T11:27:24;102440.38;;;20.71;49.60
17254;BME280;32542;52.832;13.816;2023-04-08T11:30:28;102438.59;;;20.70;49.55
17254;BME280;32542;52.832;13.816;2023-04-08T11:33:31;102432.41;;;20.70;49.42
17254;BME280;32542;52.832;13.816;2023-04-08T11:36:35;102441.25;;;20.70;49.34
17254;BME280;32542;52.832;13.816;2023-04-08T11:39:41;102444.84;;;20.69;49.52
17254;BME280;32542;52.832;13.816;2023-04-08T11:42:44;102438.59;;;20.70;49.76
17254;BME280;32542;52.832;13.816;2023-04-08T11:45:47;102437.72;;;20.70;49.79
17254;BME280;32542;52.832;13.816;2023-04-08T11:49:01;102430.63;;;20.70;49.73
17254;BME280;32542;52.832;13.816;2023-04-08T11:52:04;102442.16;;;20.71;49.73
17254;BME280;32542;52.832;13.816;2023-04-08T11:55:09;102435.03;;;20.71;49.51
17254;BME280;32542;52.832;13.816;2023-04-08T11:58:13;102440.38;;;20.71;49.40
17254;BME280;32542;52.832;13.816;2023-04-08T12:01:16;102436.78;;;20.72;49.55
17254;BME280;32542;52.832;13.816;2023-04-08T12:04:19;102436.78;;;20.72;49.44
17254;BME280;32542;52.832;13.816;2023-04-08T12:07:22;102434.13;;;20.72;49.37
17254;BME280;32542;52.832;13.816;2023-04-08T12:10:26;102427.91;;;20.73;49.35
17254;BME280;32542;52.832;13.816;2023-04-08T12:13:29;102425.25;;;20.73;49.25
17254;BME280;32542;52.832;13.816;2023-04-08T12:16:32;102426.09;;;20.75;49.31
17254;BME280;32542;52.832;13.816;2023-04-08T12:19:35;102426.09;;;20.75;49.32
17254;BME280;32542;52.832;13.816;2023-04-08T12:22:39;102418.97;;;20.76;49.23
17254;BME280;32542;52.832;13.816;2023-04-08T12:25:43;102422.50;;;20.76;49.04
17254;BME280;32542;52.832;13.816;2023-04-08T12:28:46;102426.03;;;20.77;49.06
17254;BME280;32542;52.832;13.816;2023-04-08T12:31:49;102427.81;;;20.76;49.03
17254;BME280;32542;52.832;13.816;2023-04-08T12:34:52;102422.50;;;20.76;49.04
17254;BME280;32542;52.832;13.816;2023-04-08T12:37:55;102422.50;;;20.76;48.94
17254;BME280;32542;52.832;13.816;2023-04-08T12:40:59;102424.31;;;20.74;48.91
17254;BME280;32542;52.832;13.816;2023-04-08T12:44:02;102427.81;;;20.76;48.76
17254;BME280;32542;52.832;13.816;2023-04-08T12:47:05;102425.19;;;20.75;48.88
17254;BME280;32542;52.832;13.816;2023-04-08T12:50:08;102419.88;;;20.75;48.80
17254;BME280;32542;52.832;13.816;2023-04-08T12:53:11;102413.66;;;20.74;48.73
17254;BME280;32542;52.832;13.816;2023-04-08T12:56:15;102419.88;;;20.75;48.72
17254;BME280;32542;52.832;13.816;2023-04-08T12:59:18;102418.13;;;20.74;48.75
17254;BME280;32542;52.832;13.816;2023-04-08T13:02:21;102408.34;;;20.74;48.61
17254;BME280;32542;52.832;13.816;2023-04-08T13:05:26;102409.28;;;20.73;48.65
17254;BME280;32542;52.832;13.816;2023-04-08T13:08:43;102402.16;;;20.74;48.54
17254;BME280;32542;52.832;13.816;2023-04-08T13:11:47;102403.06;;;20.73;48.47
17254;BME280;32542;52.832;13.816;2023-04-08T13:14:50;102391.50;;;20.74;48.57
17254;BME280;32542;52.832;13.816;2023-04-08T13:17:53;102387.97;;;20.73;48.58
17254;BME280;32542;52.832;13.816;2023-04-08T13:20:56;102394.19;;;20.72;48.47
17254;BME280;32542;52.832;13.816;2023-04-08T13:23:59;102399.50;;;20.72;48.62
17254;BME280;32542;52.832;13.816;2023-04-08T13:27:04;102399.50;;;20.72;48.54
17254;BME280;32542;52.832;13.816;2023-04-08T13:30:08;102395.97;;;20.73;48.69
17254;BME280;32542;52.832;13.816;2023-04-08T13:33:11;102398.63;;;20.73;48.53
17254;BME280;32542;52.832;13.816;2023-04-08T13:36:13;102411.03;;;20.73;48.43
17254;BME280;32542;52.832;13.816;2023-04-08T13:39:16;102402.16;;;20.74;48.35
17254;BME280;32542;52.832;13.816;2023-04-08T13:42:20;102398.63;;;20.73;48.32
17254;BME280;32542;52.832;13.816;2023-04-08T13:45:24;102392.38;;;20.74;48.30
17254;BME280;32542;52.832;13.816;2023-04-08T13:48:27;102396.78;;;20.75;48.37
17254;BME280;32542;52.832;13.816;2023-04-08T13:51:29;102392.34;;;20.76;48.34
17254;BME280;32542;52.832;13.816;2023-04-08T13:54:32;102394.13;;;20.75;48.32
17254;BME280;32542;52.832;13.816;2023-04-08T13:57:36;102396.78;;;20.75;48.29
17254;BME280;32542;52.832;13.816;2023-04-08T14:00:39;102400.34;;;20.74;48.21
17254;BME280;32542;52.832;13.816;2023-04-08T14:03:42;102401.28;;;20.73;48.19
17254;BME280;32542;52.832;13.816;2023-04-08T14:06:45;102398.63;;;20.73;47.96
17254;BME280;32542;52.832;13.816;2023-04-08T14:09:47;102395.97;;;20.73;48.18
17254;BME280;32542;52.832;13.816;2023-04-08T14:12:52;102395.97;;;20.73;47.99
17254;BME280;32542;52.832;13.816;2023-04-08T14:15:54;102387.03;;;20.74;47.91
17254;BME280;32542;52.832;13.816;2023-04-08T14:18:59;102388.84;;;20.74;47.90
17254;BME280;32542;52.832;13.816;2023-04-08T14:22:01;102387.94;;;20.75;47.95
17254;BME280;32542;52.832;13.816;2023-04-08T14:25:04;102386.16;;;20.75;47.92
17254;BME280;32542;52.832;13.816;2023-04-08T14:28:08;102388.81;;;20.75;48.11
17254;BME280;32542;52.832;13.816;2023-04-08T14:31:11;102390.53;;;20.76;48.24
17254;BME280;32542;52.832;13.816;2023-04-08T14:34:14;102395.03;;;20.76;48.21
17254;BME280;32542;52.832;13.816;2023-04-08T14:37:17;102385.22;;;20.76;48.08
17254;BME280;32542;52.832;13.816;2023-04-08T14:40:20;102395.88;;;20.76;48.23
17254;BME280;32542;52.832;13.816;2023-04-08T14:43:24;102390.53;;;20.76;48.22
17254;BME280;32542;52.832;13.816;2023-04-08T14:46:27;102387.88;;;20.76;48.14
17254;BME280;32542;52.832;13.816;2023-04-08T14:49:30;102386.06;;;20.78;48.27
17254;BME280;32542;52.832;13.816;2023-04-08T14:52:33;102382.53;;;20.78;48.34
17254;BME280;32542;52.832;13.816;2023-04-08T14:55:35;102389.59;;;20.79;48.34
17254;BME280;32542;52.832;13.816;2023-04-08T14:58:40;102383.41;;;20.78;48.23
17254;BME280;32542;52.832;13.816;2023-04-08T15:01:43;102395.81;;;20.79;48.22
17254;BME280;32542;52.832;13.816;2023-04-08T15:04:46;102391.38;;;20.80;48.24
17254;BME280;32542;52.832;13.816;2023-04-08T15:07:49;102389.59;;;20.79;48.21
17254;BME280;32542;52.832;13.816;2023-04-08T15:10:52;102395.81;;;20.79;48.28
17254;BME280;32542;52.832;13.816;2023-04-08T15:13:56;102389.59;;;20.79;48.28
17254;BME280;32542;52.832;13.816;2023-04-08T15:16:59;102386.94;;;20.79;48.34
17254;BME280;32542;52.832;13.816;2023-04-08T15:20:02;102383.41;;;20.78;48.31
17254;BME280;32542;52.832;13.816;2023-04-08T15:23:05;102383.41;;;20.78;48.26
17254;BME280;32542;52.832;13.816;2023-04-08T15:26:08;102381.66;;;20.77;48.23
17254;BME280;32542;52.832;13.816;2023-04-08T15:29:13;102388.72;;;20.78;48.29
17254;BME280;32542;52.832;13.816;2023-04-08T15:32:16;102378.06;;;20.78;48.28
17254;BME280;32542;52.832;13.816;2023-04-08T15:35:18;102394.06;;;20.78;48.30
17254;BME280;32542;52.832;13.816;2023-04-08T15:38:21;102384.25;;;20.80;48.27
17254;BME280;32542;52.832;13.816;2023-04-08T15:41:24;102394.03;;;20.80;48.26
17254;BME280;32542;52.832;13.816;2023-04-08T15:44:31;102392.22;;;20.80;48.26
17254;BME280;32542;52.832;13.816;2023-04-08T15:47:33;102397.56;;;20.80;48.28
17254;BME280;32542;52.832;13.816;2023-04-08T15:50:37;102394.88;;;20.80;48.29